createdAt,value
2022-09-15T00:00:51.669Z,1.95
2022-09-15T00:03:19.453Z,2.83
2022-09-15T00:05:46.708Z,2.63
2022-09-15T00:08:13.885Z,2.00
2022-09-15T00:10:51.001Z,2.20
2022-09-15T00:13:18.041Z,2.03
2022-09-15T00:15:45.179Z,2.20
2022-09-15T00:18:12.105Z,2.10
2022-09-15T00:20:42.687Z,1.95
2022-09-15T00:23:18.374Z,2.58
2022-09-15T00:25:49.929Z,2.33
2022-09-15T00:28:18.019Z,2.22
2022-09-15T00:30:55.456Z,2.63
2022-09-15T00:33:22.957Z,2.60
2022-09-15T00:35:52.086Z,2.30
2022-09-15T00:38:20.166Z,2.88
2022-09-15T00:40:49.660Z,2.83
2022-09-15T00:43:22.435Z,2.78
2022-09-15T00:45:50.509Z,2.80
2022-09-15T00:48:20.787Z,2.38
2022-09-15T00:53:16.775Z,2.10
2022-09-15T00:55:47.922Z,2.40
2022-09-15T00:58:27.111Z,2.67
2022-09-15T01:00:58.069Z,3.00
2022-09-15T01:03:25.763Z,2.42
2022-09-15T01:06:11.615Z,2.50
2022-09-15T01:09:04.324Z,2.65
2022-09-15T01:11:31.711Z,2.20
2022-09-15T01:13:58.948Z,2.40
2022-09-15T01:16:43.498Z,2.72
2022-09-15T01:19:10.543Z,3.92
2022-09-15T01:21:54.611Z,3.50
2022-09-15T01:24:34.576Z,4.35
2022-09-15T01:27:42.255Z,4.63
2022-09-15T01:30:11.913Z,3.67
2022-09-15T01:33:05.723Z,4.35
2022-09-15T01:35:33.408Z,3.75
2022-09-15T01:38:14.462Z,4.05
2022-09-15T01:40:47.742Z,3.00
2022-09-15T01:43:16.835Z,3.33
2022-09-15T01:45:45.582Z,3.67
2022-09-15T01:48:12.720Z,3.17
2022-09-15T01:50:45.861Z,3.55
2022-09-15T01:53:16.819Z,3.10
2022-09-15T01:55:51.427Z,3.10
2022-09-15T01:58:18.458Z,2.70
2022-09-15T02:00:52.230Z,3.88
2022-09-15T02:03:22.022Z,3.20
2022-09-15T02:05:55.898Z,3.15
2022-09-15T02:08:27.699Z,3.15
2022-09-15T02:11:04.805Z,2.83
2022-09-15T02:13:40.836Z,2.60
2022-09-15T02:16:19.676Z,2.85
2022-09-15T02:18:51.071Z,3.10
2022-09-15T02:21:23.252Z,2.67
2022-09-15T02:23:53.662Z,2.38
2022-09-15T02:26:24.416Z,2.55
2022-09-15T02:28:52.392Z,2.55
2022-09-15T02:31:21.650Z,2.50
2022-09-15T02:33:51.975Z,2.97
2022-09-15T02:36:20.776Z,2.55
2022-09-15T02:38:50.635Z,2.30
2022-09-15T02:41:17.775Z,2.25
2022-09-15T02:43:49.164Z,2.40
2022-09-15T02:46:18.642Z,2.20
2022-09-15T02:48:45.685Z,2.28
2022-09-15T02:51:12.776Z,2.50
2022-09-15T02:53:39.815Z,2.92
2022-09-15T02:56:07.019Z,2.53
2022-09-15T02:58:43.744Z,2.92
2022-09-15T03:01:15.708Z,2.00
2022-09-15T03:03:44.218Z,2.38
2022-09-15T03:06:21.515Z,2.20
2022-09-15T03:08:58.677Z,2.47
2022-09-15T03:11:27.889Z,2.72
2022-09-15T03:13:56.722Z,2.20
2022-09-15T03:16:24.577Z,2.80
2022-09-15T03:18:52.392Z,2.40
2022-09-15T03:21:19.418Z,2.42
2022-09-15T03:23:46.658Z,2.15
2022-09-15T03:26:13.967Z,2.42
2022-09-15T03:28:41.133Z,2.13
2022-09-15T03:31:09.254Z,2.20
2022-09-15T03:33:38.631Z,2.40
2022-09-15T03:36:06.819Z,2.22
2022-09-15T03:38:33.888Z,2.38
2022-09-15T03:41:10.471Z,2.00
2022-09-15T03:43:38.076Z,1.92
2022-09-15T03:46:07.164Z,2.05
2022-09-15T03:48:35.998Z,2.17
2022-09-15T03:51:03.856Z,1.88
2022-09-15T03:53:35.348Z,2.40
2022-09-15T03:56:17.758Z,2.22
2022-09-15T03:58:47.043Z,1.92
2022-09-15T04:01:13.744Z,1.90
2022-09-15T04:03:46.319Z,2.00
2022-09-15T04:06:15.095Z,1.92
2022-09-15T04:08:42.404Z,1.98
2022-09-15T04:11:11.311Z,2.30
2022-09-15T04:13:39.084Z,2.28
2022-09-15T04:16:11.301Z,1.75
2022-09-15T04:18:38.223Z,2.10
2022-09-15T04:21:07.696Z,2.20
2022-09-15T04:23:34.877Z,1.98
2022-09-15T04:26:04.659Z,2.45
2022-09-15T04:28:37.240Z,1.88
2022-09-15T04:31:11.879Z,1.80
2022-09-15T04:33:40.400Z,2.25
2022-09-15T04:36:09.721Z,1.90
2022-09-15T04:38:36.915Z,2.00
2022-09-15T04:41:04.463Z,1.83
2022-09-15T04:43:32.290Z,2.00
2022-09-15T04:45:59.060Z,1.80
2022-09-15T04:48:26.653Z,1.88
2022-09-15T04:50:53.691Z,2.40
2022-09-15T04:53:21.395Z,1.90
2022-09-15T04:55:48.756Z,2.30
2022-09-15T04:58:15.831Z,1.90
2022-09-15T05:00:43.761Z,2.00
2022-09-15T05:03:11.725Z,1.60
2022-09-15T05:05:38.800Z,2.33
2022-09-15T05:08:06.151Z,2.00
2022-09-15T05:10:33.282Z,1.55
2022-09-15T05:13:00.407Z,1.88
2022-09-15T05:15:27.482Z,1.80
2022-09-15T05:17:54.573Z,2.05
2022-09-15T05:20:22.330Z,2.03
2022-09-15T05:22:49.006Z,1.50
2022-09-15T05:25:16.065Z,1.70
2022-09-15T05:27:45.650Z,1.70
2022-09-15T05:32:59.283Z,2.55
2022-09-15T05:35:26.399Z,1.88
2022-09-15T05:37:53.443Z,1.67
2022-09-15T05:40:22.067Z,1.92
2022-09-15T05:42:49.208Z,1.60
2022-09-15T05:45:16.624Z,1.90
2022-09-15T05:47:43.802Z,2.03
2022-09-15T05:50:11.317Z,1.48
2022-09-15T05:52:38.645Z,1.67
2022-09-15T05:55:05.455Z,1.50
2022-09-15T05:57:32.556Z,1.63
2022-09-15T05:59:59.619Z,2.30
2022-09-15T06:02:26.295Z,1.92
2022-09-15T06:04:53.418Z,2.10
2022-09-15T06:07:20.963Z,1.90
2022-09-15T06:09:48.108Z,1.92
2022-09-15T06:12:15.351Z,1.70
2022-09-15T06:14:44.579Z,1.80
2022-09-15T06:17:11.636Z,1.48
2022-09-15T06:19:38.701Z,1.45
2022-09-15T06:22:05.910Z,1.88
2022-09-15T06:24:33.012Z,1.50
2022-09-15T06:26:59.904Z,1.63
2022-09-15T06:29:27.895Z,1.38
2022-09-15T06:31:55.186Z,1.40
2022-09-15T06:34:22.363Z,1.58
2022-09-15T06:36:49.532Z,1.80
2022-09-15T06:39:16.611Z,1.60
2022-09-15T06:42:01.145Z,1.80
2022-09-15T06:44:28.965Z,1.40
2022-09-15T06:46:56.329Z,1.40
2022-09-15T06:49:23.411Z,1.63
2022-09-15T06:51:50.058Z,1.80
2022-09-15T06:54:16.746Z,1.10
2022-09-15T06:56:44.040Z,1.42
2022-09-15T06:59:12.573Z,1.52
2022-09-15T07:01:39.815Z,1.58
2022-09-15T07:04:09.837Z,1.98
2022-09-15T07:09:05.804Z,1.70
2022-09-15T07:11:36.460Z,1.33
2022-09-15T07:14:03.596Z,1.38
2022-09-15T07:16:30.899Z,1.67
2022-09-15T07:19:00.509Z,1.48
2022-09-15T07:21:27.856Z,1.65
2022-09-15T07:23:57.357Z,1.23
2022-09-15T07:26:26.471Z,1.40
2022-09-15T07:29:05.846Z,1.48
2022-09-15T07:31:35.015Z,1.33
2022-09-15T07:34:02.442Z,1.40
2022-09-15T07:36:29.990Z,2.08
2022-09-15T07:38:57.232Z,1.55
2022-09-15T07:41:29.295Z,1.38
2022-09-15T07:43:58.218Z,1.20
2022-09-15T07:46:26.444Z,0.95
2022-09-15T07:48:57.142Z,1.27
2022-09-15T07:51:25.284Z,1.30
2022-09-15T07:53:52.909Z,0.82
2022-09-15T07:56:20.399Z,1.02
2022-09-15T07:58:48.090Z,1.13
2022-09-15T08:01:16.753Z,1.17
2022-09-15T08:03:48.922Z,1.20
2022-09-15T08:06:18.353Z,1.25
2022-09-15T08:08:45.497Z,1.52
2022-09-15T08:11:18.423Z,1.23
2022-09-15T08:13:49.609Z,1.33
2022-09-15T08:16:18.567Z,0.95
2022-09-15T08:18:45.728Z,1.25
2022-09-15T08:21:16.144Z,1.08
2022-09-15T08:23:43.264Z,1.10
2022-09-15T08:26:14.182Z,1.13
2022-09-15T08:28:42.398Z,1.17
2022-09-15T08:31:11.428Z,1.33
2022-09-15T08:33:43.189Z,1.17
2022-09-15T08:36:12.327Z,1.13
2022-09-15T08:38:46.958Z,1.13
2022-09-15T08:41:24.245Z,1.48
2022-09-15T08:44:30.451Z,1.23
2022-09-15T08:47:15.807Z,1.50
2022-09-15T08:49:57.826Z,1.10
2022-09-15T08:52:48.871Z,1.17
2022-09-15T08:55:33.472Z,1.17
2022-09-15T08:58:00.542Z,1.23
2022-09-15T09:00:27.599Z,1.08
2022-09-15T09:03:12.495Z,1.08
2022-09-15T09:05:40.708Z,1.17
2022-09-15T09:08:39.382Z,0.93
2022-09-15T09:11:06.455Z,0.85
2022-09-15T09:13:58.088Z,0.95
2022-09-15T09:16:49.943Z,1.02
2022-09-15T09:19:42.542Z,1.15
2022-09-15T09:22:16.140Z,0.98
2022-09-15T09:24:55.225Z,0.90
2022-09-15T09:27:26.179Z,1.00
2022-09-15T09:30:00.388Z,1.10
2022-09-15T09:32:39.612Z,0.85
2022-09-15T09:35:18.647Z,1.13
2022-09-15T09:37:45.625Z,1.33
2022-09-15T09:40:14.557Z,1.20
2022-09-15T09:42:42.500Z,1.10
2022-09-15T09:45:13.436Z,1.08
2022-09-15T09:47:41.234Z,1.00
2022-09-15T09:50:38.607Z,1.20
2022-09-15T09:53:29.870Z,0.90
2022-09-15T09:56:26.612Z,1.27
2022-09-15T09:58:54.330Z,1.30
2022-09-15T10:01:25.561Z,1.20
2022-09-15T10:04:19.089Z,1.30
2022-09-15T10:06:46.292Z,1.38
2022-09-15T10:09:20.555Z,1.20
2022-09-15T10:11:53.930Z,1.25
2022-09-15T10:14:30.478Z,1.20
2022-09-15T10:17:03.565Z,1.40
2022-09-15T10:19:32.475Z,1.40
2022-09-15T10:22:00.708Z,1.30
2022-09-15T10:24:27.713Z,0.93
2022-09-15T10:27:21.003Z,1.10
2022-09-15T10:29:48.125Z,1.02
2022-09-15T10:32:25.163Z,1.15
2022-09-15T10:35:00.431Z,1.05
2022-09-15T10:38:08.967Z,1.13
2022-09-15T10:41:01.526Z,1.10
2022-09-15T10:43:59.923Z,1.25
2022-09-15T10:47:14.483Z,1.25
2022-09-15T10:49:41.137Z,1.25
2022-09-15T10:52:26.404Z,0.98
2022-09-15T10:55:04.985Z,1.25
2022-09-15T10:57:53.160Z,1.23
2022-09-15T11:00:25.717Z,0.93
2022-09-15T11:03:11.089Z,1.25
2022-09-15T11:06:06.155Z,0.90
2022-09-15T11:08:43.572Z,1.20
2022-09-15T11:11:25.216Z,1.20
2022-09-15T11:14:07.313Z,1.20
2022-09-15T11:16:59.230Z,1.00
2022-09-15T11:20:03.788Z,1.20
2022-09-15T11:22:47.301Z,1.10
2022-09-15T11:25:23.367Z,1.15
2022-09-15T11:27:55.151Z,1.42
2022-09-15T11:30:25.893Z,1.60
2022-09-15T11:33:05.093Z,1.23
2022-09-15T11:35:32.346Z,1.27
2022-09-15T11:38:18.577Z,1.00
2022-09-15T11:40:51.085Z,1.10
2022-09-15T11:43:56.581Z,1.65
2022-09-15T11:47:00.118Z,1.20
2022-09-15T11:49:53.416Z,0.80
2022-09-15T11:52:49.408Z,0.93
2022-09-15T11:55:37.017Z,1.05
2022-09-15T11:58:44.038Z,0.90
2022-09-15T12:01:10.654Z,0.82
2022-09-15T12:04:14.227Z,0.90
2022-09-15T12:06:56.156Z,0.77
2022-09-15T12:09:25.202Z,0.80
2022-09-15T12:12:00.075Z,1.00
2022-09-15T12:14:27.296Z,1.17
2022-09-15T12:16:55.594Z,0.90
2022-09-15T12:19:25.215Z,0.63
2022-09-15T12:25:00.610Z,0.88
2022-09-15T12:27:31.367Z,0.77
2022-09-15T12:30:01.401Z,0.70
2022-09-15T12:32:40.283Z,0.93
2022-09-15T12:35:31.246Z,1.02
2022-09-15T12:38:02.812Z,0.70
2022-09-15T12:40:38.589Z,1.38
2022-09-15T12:45:46.932Z,0.90
2022-09-15T12:48:24.583Z,0.90
2022-09-15T12:51:00.128Z,1.17
2022-09-15T12:53:37.303Z,1.02
2022-09-15T12:56:11.611Z,1.13
2022-09-15T12:58:42.031Z,0.82
2022-09-15T13:01:26.905Z,1.00
2022-09-15T13:03:55.102Z,1.13
2022-09-15T13:06:30.670Z,1.23
2022-09-15T13:09:06.000Z,1.20
2022-09-15T13:11:38.542Z,0.93
2022-09-15T13:14:08.654Z,0.80
2022-09-15T13:16:58.389Z,0.90
2022-09-15T13:19:38.667Z,0.90
2022-09-15T13:22:10.935Z,1.13
2022-09-15T13:24:59.280Z,1.10
2022-09-15T13:27:55.304Z,1.02
2022-09-15T13:30:22.561Z,0.93
2022-09-15T13:33:21.449Z,1.02
2022-09-15T13:39:42.402Z,1.02
2022-09-15T13:42:29.656Z,1.30
2022-09-15T13:45:14.460Z,0.77
2022-09-15T13:47:46.641Z,0.95
2022-09-15T13:50:36.952Z,1.20
2022-09-15T13:53:24.085Z,1.10
2022-09-15T13:55:53.842Z,1.17
2022-09-15T14:01:11.420Z,1.23
2022-09-15T14:03:52.279Z,0.93
2022-09-15T14:06:40.244Z,1.33
2022-09-15T14:09:14.971Z,1.83
2022-09-15T14:11:43.434Z,1.00
2022-09-15T14:14:35.005Z,1.00
2022-09-15T14:17:01.904Z,1.20
2022-09-15T14:19:38.061Z,0.90
2022-09-15T14:24:53.949Z,0.90
2022-09-15T14:27:29.329Z,1.25
2022-09-15T14:30:00.277Z,1.20
2022-09-15T14:32:28.687Z,1.00
2022-09-15T14:34:59.513Z,1.05
2022-09-15T14:37:32.012Z,1.17
2022-09-15T14:40:00.716Z,1.30
2022-09-15T14:42:35.714Z,0.93
2022-09-15T14:48:07.492Z,1.00
2022-09-15T14:50:35.012Z,1.33
2022-09-15T14:53:06.236Z,1.65
2022-09-15T14:55:39.415Z,1.00
2022-09-15T14:58:23.203Z,1.08
2022-09-15T15:01:00.182Z,1.23
2022-09-15T15:03:39.115Z,1.05
2022-09-15T15:06:30.293Z,0.93
2022-09-15T15:09:19.316Z,1.23
2022-09-15T15:11:48.103Z,1.02
2022-09-15T15:14:16.465Z,1.02
2022-09-15T15:16:57.682Z,1.10
2022-09-15T15:19:57.639Z,1.17
2022-09-15T15:22:24.985Z,1.02
2022-09-15T15:24:53.305Z,1.10
2022-09-15T15:27:35.028Z,0.95
2022-09-15T15:30:23.729Z,1.20
2022-09-15T15:32:50.766Z,1.08
2022-09-15T15:35:18.710Z,0.80
2022-09-15T15:37:45.879Z,1.20
2022-09-15T15:40:23.292Z,1.25
2022-09-15T15:43:00.856Z,1.13
2022-09-15T15:45:33.890Z,1.30
2022-09-15T15:48:04.546Z,1.23
2022-09-15T15:50:34.492Z,1.20
2022-09-15T15:53:02.511Z,1.08
2022-09-15T15:55:41.473Z,0.70
2022-09-15T15:58:10.684Z,1.00
2022-09-15T16:00:51.940Z,1.20
2022-09-15T16:03:19.835Z,1.02
2022-09-15T16:05:51.051Z,1.10
2022-09-15T16:08:26.247Z,1.00
2022-09-15T16:10:54.452Z,1.25
2022-09-15T16:13:23.016Z,0.90
2022-09-15T16:15:50.078Z,1.23
2022-09-15T16:18:17.318Z,1.13
2022-09-15T16:20:44.233Z,1.13
2022-09-15T16:23:16.926Z,1.05
2022-09-15T16:26:01.449Z,0.77
2022-09-15T16:28:31.017Z,1.27
2022-09-15T16:30:58.590Z,0.82
2022-09-15T16:33:26.095Z,1.48
2022-09-15T16:36:06.853Z,1.30
2022-09-15T16:38:35.613Z,1.10
2022-09-15T16:41:03.613Z,1.00
2022-09-15T16:43:30.725Z,1.13
2022-09-15T16:45:57.902Z,0.88
2022-09-15T16:48:25.209Z,1.00
2022-09-15T16:51:20.324Z,1.45
2022-09-15T16:53:42.232Z,1.20
2022-09-15T16:56:13.062Z,1.02
2022-09-15T16:58:39.997Z,1.02
2022-09-15T17:01:07.529Z,0.95
2022-09-15T17:03:34.279Z,1.45
2022-09-15T17:06:02.036Z,0.77
2022-09-15T17:08:31.254Z,0.90
2022-09-15T17:11:03.841Z,0.98
2022-09-15T17:13:33.404Z,1.10
2022-09-15T17:16:01.549Z,0.77
2022-09-15T17:18:30.471Z,1.10
2022-09-15T17:20:57.394Z,0.90
2022-09-15T17:23:30.985Z,1.13
2022-09-15T17:25:59.694Z,0.93
2022-09-15T17:28:28.793Z,1.25
2022-09-15T17:31:00.812Z,1.15
2022-09-15T17:33:29.300Z,1.50
2022-09-15T17:35:56.182Z,1.20
2022-09-15T17:38:23.331Z,1.33
2022-09-15T17:40:51.587Z,1.30
2022-09-15T17:43:29.918Z,1.27
2022-09-15T17:45:56.965Z,1.17
2022-09-15T17:48:24.555Z,1.25
2022-09-15T17:50:52.231Z,1.13
2022-09-15T17:53:26.480Z,1.27
2022-09-15T17:55:54.697Z,0.93
2022-09-15T17:58:22.545Z,1.63
2022-09-15T18:00:49.915Z,1.13
2022-09-15T18:03:22.904Z,0.88
2022-09-15T18:05:50.865Z,1.17
2022-09-15T18:08:17.711Z,1.00
2022-09-15T18:10:44.997Z,1.05
2022-09-15T18:13:23.404Z,0.90
2022-09-15T18:15:51.030Z,1.30
2022-09-15T18:18:21.047Z,1.00
2022-09-15T18:20:49.767Z,1.05
2022-09-15T18:23:22.817Z,1.08
2022-09-15T18:25:49.999Z,1.40
2022-09-15T18:28:17.551Z,1.20
2022-09-15T18:30:46.832Z,1.00
2022-09-15T18:35:42.301Z,1.00
2022-09-15T18:38:10.534Z,1.00
2022-09-15T18:40:37.820Z,1.02
2022-09-15T18:43:05.515Z,1.45
2022-09-15T18:45:32.387Z,1.45
2022-09-15T18:47:59.487Z,1.67
2022-09-15T18:50:27.099Z,0.93
2022-09-15T18:52:54.552Z,1.10
2022-09-15T18:55:22.424Z,1.00
2022-09-15T18:57:52.391Z,1.08
2022-09-15T19:00:24.539Z,1.10
2022-09-15T19:03:02.172Z,1.20
2022-09-15T19:05:33.063Z,1.20
2022-09-15T19:08:00.392Z,1.00
2022-09-15T19:10:27.647Z,1.35
2022-09-15T19:12:55.098Z,1.05
2022-09-15T19:15:25.015Z,1.30
2022-09-15T19:17:52.127Z,1.13
2022-09-15T19:20:21.855Z,1.27
2022-09-15T19:22:51.174Z,1.02
2022-09-15T19:25:17.894Z,1.13
2022-09-15T19:27:45.130Z,1.30
2022-09-15T19:30:12.230Z,1.08
2022-09-15T19:32:40.425Z,0.90
2022-09-15T19:35:08.509Z,1.25
2022-09-15T19:37:39.867Z,1.30
2022-09-15T19:40:09.548Z,1.23
2022-09-15T19:42:38.440Z,1.35
2022-09-15T19:45:06.370Z,1.45
2022-09-15T19:47:33.455Z,1.33
2022-09-15T19:50:00.523Z,1.30
2022-09-15T19:52:28.287Z,1.17
2022-09-15T19:54:55.061Z,1.38
2022-09-15T19:57:22.500Z,1.38
2022-09-15T19:59:49.898Z,1.15
2022-09-15T20:02:17.326Z,1.70
2022-09-15T20:04:44.942Z,1.10
2022-09-15T20:07:12.726Z,1.25
2022-09-15T20:09:39.585Z,1.23
2022-09-15T20:12:06.779Z,1.50
2022-09-15T20:14:34.090Z,1.42
2022-09-15T20:17:01.872Z,1.55
2022-09-15T20:19:29.864Z,1.50
2022-09-15T20:21:57.127Z,1.52
2022-09-15T20:24:24.785Z,1.40
2022-09-15T20:26:54.471Z,1.33
2022-09-15T20:29:21.742Z,1.25
2022-09-15T20:31:48.880Z,2.20
2022-09-15T20:34:16.347Z,1.42
2022-09-15T20:36:43.511Z,1.60
2022-09-15T20:39:13.077Z,1.40
2022-09-15T20:41:41.709Z,1.23
2022-09-15T20:44:09.368Z,1.50
2022-09-15T20:46:36.292Z,1.42
2022-09-15T20:49:03.021Z,1.83
2022-09-15T20:51:31.656Z,1.23
2022-09-15T20:54:00.618Z,1.38
2022-09-15T20:56:29.390Z,1.67
2022-09-15T20:58:58.405Z,1.35
2022-09-15T21:01:32.270Z,1.30
2022-09-15T21:03:59.461Z,1.25
2022-09-15T21:06:27.676Z,1.50
2022-09-15T21:08:58.581Z,1.42
2022-09-15T21:11:27.402Z,1.70
2022-09-15T21:13:55.559Z,1.42
2022-09-15T21:16:24.733Z,1.38
2022-09-15T21:18:51.887Z,1.80
2022-09-15T21:21:21.400Z,1.23
2022-09-15T21:24:07.932Z,1.58
2022-09-15T21:26:57.222Z,1.50
2022-09-15T21:29:23.963Z,1.40
2022-09-15T21:31:50.833Z,1.27
2022-09-15T21:34:17.948Z,1.42
2022-09-15T21:36:45.586Z,1.65
2022-09-15T21:39:12.659Z,1.65
2022-09-15T21:41:39.328Z,1.60
2022-09-15T21:44:05.951Z,1.33
2022-09-15T21:46:33.019Z,1.38
2022-09-15T21:49:00.480Z,1.65
2022-09-15T21:51:29.129Z,1.55
2022-09-15T21:53:57.693Z,1.63
2022-09-15T21:56:25.517Z,1.70
2022-09-15T21:58:52.582Z,1.90
2022-09-15T22:01:20.695Z,1.42
2022-09-15T22:03:49.747Z,1.80
2022-09-15T22:06:16.765Z,1.58
2022-09-15T22:08:44.274Z,1.70
2022-09-15T22:11:11.406Z,1.58
2022-09-15T22:13:43.562Z,1.42
2022-09-15T22:16:16.913Z,1.48
2022-09-15T22:18:44.612Z,1.77
2022-09-15T22:21:23.128Z,1.58
2022-09-15T22:23:50.933Z,1.80
2022-09-15T22:26:20.831Z,1.60
2022-09-15T22:28:47.803Z,1.40
2022-09-15T22:31:16.483Z,1.40
2022-09-15T22:33:43.838Z,1.33
2022-09-15T22:36:11.641Z,1.40
2022-09-15T22:38:38.903Z,1.50
2022-09-15T22:41:10.255Z,1.63
2022-09-15T22:43:36.947Z,1.92
2022-09-15T22:46:05.303Z,1.75
2022-09-15T22:48:32.412Z,1.55
2022-09-15T22:50:59.594Z,1.58
2022-09-15T22:53:26.654Z,1.63
2022-09-15T22:56:04.865Z,1.50
2022-09-15T22:58:32.628Z,1.25
2022-09-15T23:01:07.632Z,1.42
2022-09-15T23:03:34.760Z,1.33
2022-09-15T23:06:02.129Z,1.55
2022-09-15T23:08:30.272Z,1.55
2022-09-15T23:11:04.262Z,1.20
2022-09-15T23:13:30.926Z,1.40
2022-09-15T23:15:58.065Z,1.10
2022-09-15T23:18:26.892Z,1.60
2022-09-15T23:21:01.868Z,1.50
2022-09-15T23:23:29.609Z,1.48
2022-09-15T23:25:56.825Z,1.50
2022-09-15T23:28:24.048Z,1.58
2022-09-15T23:30:52.694Z,1.90
2022-09-15T23:33:20.423Z,1.60
2022-09-15T23:35:47.717Z,1.73
2022-09-15T23:38:15.026Z,1.58
2022-09-15T23:40:42.931Z,1.60
2022-09-15T23:43:10.649Z,1.35
2022-09-15T23:45:38.228Z,1.40
2022-09-15T23:48:05.604Z,1.88
2022-09-15T23:50:32.728Z,1.40
2022-09-15T23:52:59.869Z,1.52
2022-09-15T23:55:27.133Z,1.38
2022-09-15T23:57:53.800Z,1.50
